createdAt,value
2019-05-09T00:01:43.988Z,0.00
2019-05-09T00:02:44.314Z,0.00
2019-05-09T00:04:36.682Z,0.00
2019-05-09T00:05:36.693Z,0.00
2019-05-09T00:07:29.605Z,0.00
2019-05-09T00:08:29.613Z,0.00
2019-05-09T00:10:38.130Z,0.00
2019-05-09T00:11:24.526Z,0.00
2019-05-09T00:13:15.438Z,0.00
2019-05-09T00:14:15.445Z,0.00
2019-05-09T00:16:08.361Z,0.00
2019-05-09T00:17:08.371Z,0.00
2019-05-09T00:19:03.350Z,0.00
2019-05-09T00:20:03.407Z,0.00
2019-05-09T00:21:54.197Z,0.00
2019-05-09T00:22:54.204Z,0.00
2019-05-09T00:24:47.112Z,0.00
2019-05-09T00:25:47.124Z,0.00
2019-05-09T00:27:41.029Z,0.00
2019-05-09T00:28:41.037Z,0.00
2019-05-09T00:30:33.950Z,0.00
2019-05-09T00:31:33.954Z,0.00
2019-05-09T00:33:26.872Z,0.00
2019-05-09T00:34:26.870Z,0.00
2019-05-09T00:36:19.783Z,0.00
2019-05-09T00:37:19.790Z,0.00
2019-05-09T00:39:13.404Z,0.00
2019-05-09T00:40:13.262Z,0.00
2019-05-09T00:42:05.629Z,0.00
2019-05-09T00:43:05.636Z,0.00
2019-05-09T00:44:58.544Z,0.00
2019-05-09T00:45:58.555Z,0.00
2019-05-09T00:47:53.414Z,0.00
2019-05-09T00:48:53.318Z,0.00
2019-05-09T00:50:44.386Z,0.00
2019-05-09T00:51:44.391Z,0.00
2019-05-09T00:53:37.295Z,0.00
2019-05-09T00:54:37.308Z,0.00
2019-05-09T00:56:30.219Z,0.00
2019-05-09T00:57:30.226Z,0.00
2019-05-09T00:59:24.152Z,0.00
2019-05-09T01:00:24.255Z,0.00
2019-05-09T01:02:16.068Z,0.00
2019-05-09T01:03:16.065Z,0.00
2019-05-09T01:05:08.974Z,0.00
2019-05-09T01:06:08.985Z,0.00
2019-05-09T01:08:04.088Z,0.00
2019-05-09T01:09:03.643Z,0.00
2019-05-09T01:11:08.499Z,0.00
2019-05-09T01:11:54.820Z,0.00
2019-05-09T01:13:47.730Z,0.00
2019-05-09T01:14:47.741Z,0.00
2019-05-09T01:16:40.654Z,0.00
2019-05-09T01:17:40.659Z,0.00
2019-05-09T01:19:33.831Z,0.00
2019-05-09T01:20:33.579Z,0.00
2019-05-09T01:22:26.493Z,0.00
2019-05-09T01:23:26.497Z,0.00
2019-05-09T01:25:19.407Z,0.00
2019-05-09T01:26:19.416Z,0.00
2019-05-09T01:28:13.969Z,0.00
2019-05-09T01:29:13.848Z,0.00
2019-05-09T01:31:05.252Z,0.00
2019-05-09T01:32:05.252Z,0.00
2019-05-09T01:33:58.162Z,0.00
2019-05-09T01:34:58.173Z,0.00
2019-05-09T01:36:51.086Z,0.00
2019-05-09T01:37:51.090Z,0.00
2019-05-09T01:39:44.143Z,0.00
2019-05-09T01:40:44.036Z,0.00
2019-05-09T01:42:36.920Z,0.00
2019-05-09T01:43:36.927Z,0.00
2019-05-09T01:45:29.833Z,0.00
2019-05-09T01:46:29.846Z,0.00
2019-05-09T01:48:23.414Z,0.00
2019-05-09T01:49:23.366Z,0.00
2019-05-09T01:51:15.678Z,0.00
2019-05-09T01:52:15.680Z,0.00
2019-05-09T01:54:08.590Z,0.00
2019-05-09T01:55:08.601Z,0.00
2019-05-09T01:57:03.314Z,0.00
2019-05-09T01:58:03.368Z,0.00
2019-05-09T01:59:54.429Z,0.00
2019-05-09T02:00:54.439Z,0.00
2019-05-09T02:02:47.351Z,0.00
2019-05-09T02:03:47.357Z,0.00
2019-05-09T02:05:40.266Z,0.00
2019-05-09T02:06:40.276Z,0.00
2019-05-09T02:08:34.486Z,0.00
2019-05-09T02:09:34.230Z,0.00
2019-05-09T02:11:39.328Z,0.00
2019-05-09T02:12:26.108Z,0.00
2019-05-09T02:14:19.019Z,0.00
2019-05-09T02:15:19.027Z,0.00
2019-05-09T02:17:13.909Z,0.00
2019-05-09T02:18:13.742Z,0.00
2019-05-09T02:20:04.859Z,0.00
2019-05-09T02:21:04.871Z,0.00
2019-05-09T02:22:57.780Z,0.00
2019-05-09T02:23:57.790Z,0.00
2019-05-09T02:25:50.691Z,0.00
2019-05-09T02:26:50.701Z,0.00
2019-05-09T02:28:43.615Z,0.00
2019-05-09T02:29:44.027Z,0.00
2019-05-09T02:31:36.534Z,0.00
2019-05-09T02:32:36.537Z,0.00
2019-05-09T02:34:29.443Z,0.00
2019-05-09T02:35:38.821Z,0.00
2019-05-09T02:37:22.368Z,0.00
2019-05-09T02:38:22.378Z,0.00
2019-05-09T02:40:18.495Z,0.00
2019-05-09T02:41:15.290Z,0.00
2019-05-09T02:43:09.978Z,0.00
2019-05-09T02:44:09.264Z,0.00
2019-05-09T02:46:01.115Z,0.00
2019-05-09T02:47:01.126Z,0.00
2019-05-09T02:48:54.039Z,0.00
2019-05-09T02:49:54.044Z,0.00
2019-05-09T02:51:48.764Z,0.00
2019-05-09T02:52:48.708Z,0.00
2019-05-09T02:54:39.883Z,0.00
2019-05-09T02:55:39.880Z,0.00
2019-05-09T02:57:32.806Z,0.00
2019-05-09T02:58:32.802Z,0.00
2019-05-09T03:00:28.597Z,0.00
2019-05-09T03:01:25.720Z,0.00
2019-05-09T03:03:19.793Z,0.00
2019-05-09T03:04:19.003Z,0.00
2019-05-09T03:06:11.552Z,0.00
2019-05-09T03:07:11.563Z,0.00
2019-05-09T03:09:04.468Z,0.00
2019-05-09T03:10:04.474Z,0.00
2019-05-09T03:11:58.959Z,0.00
2019-05-09T03:12:59.453Z,0.00
2019-05-09T03:14:50.312Z,0.00
2019-05-09T03:15:50.315Z,0.00
2019-05-09T03:17:43.230Z,0.00
2019-05-09T03:18:43.240Z,0.00
2019-05-09T03:20:39.010Z,0.00
2019-05-09T03:21:39.017Z,0.00
2019-05-09T03:23:29.058Z,0.00
2019-05-09T03:24:29.157Z,0.00
2019-05-09T03:26:21.971Z,0.00
2019-05-09T03:27:21.982Z,0.00
2019-05-09T03:29:14.909Z,0.00
2019-05-09T03:30:14.923Z,0.00
2019-05-09T03:32:09.140Z,0.00
2019-05-09T03:33:10.433Z,0.00
2019-05-09T03:35:00.731Z,0.00
2019-05-09T03:36:00.733Z,0.00
2019-05-09T03:37:53.650Z,0.00
2019-05-09T03:38:53.655Z,5.63
2019-05-09T03:40:47.670Z,5.63
2019-05-09T03:41:48.738Z,5.63
2019-05-09T03:43:39.490Z,5.63
2019-05-09T03:44:39.492Z,5.63
2019-05-09T03:46:32.397Z,5.63
2019-05-09T03:47:32.406Z,11.25
2019-05-09T03:49:25.317Z,11.25
2019-05-09T03:50:27.840Z,11.25
2019-05-09T03:52:18.233Z,11.25
2019-05-09T03:53:18.467Z,16.88
2019-05-09T03:55:11.165Z,16.88
2019-05-09T03:56:11.161Z,16.88
2019-05-09T03:58:04.070Z,22.50
2019-05-09T03:59:04.079Z,22.50
2019-05-09T04:00:57.978Z,28.13
2019-05-09T04:01:59.041Z,28.13
2019-05-09T04:03:50.935Z,28.13
2019-05-09T04:04:50.953Z,33.75
2019-05-09T04:06:43.878Z,33.75
2019-05-09T04:07:43.884Z,33.75
2019-05-09T04:09:37.777Z,39.38
2019-05-09T04:10:38.539Z,39.38
2019-05-09T04:12:29.745Z,45.00
2019-05-09T04:13:29.754Z,45.00
2019-05-09T04:15:22.705Z,45.00
2019-05-09T04:16:22.670Z,45.00
2019-05-09T04:18:17.597Z,50.63
2019-05-09T04:19:17.521Z,50.63
2019-05-09T04:21:08.565Z,45.00
2019-05-09T04:22:08.509Z,45.00
2019-05-09T04:24:01.417Z,50.63
2019-05-09T04:25:01.422Z,50.63
2019-05-09T04:27:07.822Z,50.63
2019-05-09T04:28:07.510Z,50.63
2019-05-09T04:30:00.125Z,56.25
2019-05-09T04:31:00.053Z,56.25
2019-05-09T04:32:53.053Z,61.88
2019-05-09T04:33:53.344Z,61.88
2019-05-09T04:35:47.571Z,61.88
2019-05-09T04:36:48.179Z,61.88
2019-05-09T04:38:39.962Z,67.50
2019-05-09T04:39:40.651Z,73.13
2019-05-09T04:41:32.041Z,78.75
2019-05-09T04:42:35.035Z,84.38
2019-05-09T04:44:24.864Z,135.00
2019-05-09T04:45:24.869Z,157.50
2019-05-09T04:47:17.774Z,101.25
2019-05-09T04:48:23.877Z,101.25
2019-05-09T04:50:10.695Z,106.88
2019-05-09T04:51:10.700Z,106.88
2019-05-09T04:53:03.604Z,112.50
2019-05-09T04:54:03.613Z,112.50
2019-05-09T04:55:58.052Z,118.13
2019-05-09T04:56:57.429Z,123.75
2019-05-09T04:58:49.441Z,123.75
2019-05-09T04:59:49.444Z,123.75
2019-05-09T05:01:42.376Z,135.00
2019-05-09T05:02:42.360Z,135.00
2019-05-09T05:04:37.297Z,146.25
2019-05-09T05:05:37.167Z,151.88
2019-05-09T05:07:28.819Z,163.13
2019-05-09T05:08:28.543Z,168.75
2019-05-09T05:10:21.103Z,191.25
2019-05-09T05:11:21.109Z,208.13
2019-05-09T05:13:25.795Z,191.25
2019-05-09T05:14:14.025Z,191.25
2019-05-09T05:16:08.374Z,185.63
2019-05-09T05:17:10.903Z,191.25
2019-05-09T05:18:59.860Z,185.63
2019-05-09T05:19:59.866Z,180.00
2019-05-09T05:21:52.771Z,230.63
2019-05-09T05:22:52.783Z,202.50
2019-05-09T05:24:45.700Z,202.50
2019-05-09T05:25:47.596Z,202.50
2019-05-09T05:27:38.619Z,298.13
2019-05-09T05:28:38.622Z,371.25
2019-05-09T05:30:31.538Z,236.25
2019-05-09T05:31:31.542Z,298.13
2019-05-09T05:33:24.461Z,511.88
2019-05-09T05:34:24.462Z,365.63
2019-05-09T05:36:18.120Z,298.13
2019-05-09T05:37:17.702Z,241.88
2019-05-09T05:39:10.299Z,213.75
2019-05-09T05:40:10.302Z,213.75
2019-05-09T05:42:03.217Z,225.00
2019-05-09T05:43:03.223Z,230.63
2019-05-09T05:44:58.119Z,247.50
2019-05-09T05:45:58.333Z,230.63
2019-05-09T05:47:49.059Z,270.00
2019-05-09T05:48:49.070Z,286.88
2019-05-09T05:50:41.985Z,421.88
2019-05-09T05:51:41.983Z,517.50
2019-05-09T05:53:34.895Z,759.38
2019-05-09T05:54:34.904Z,770.63
2019-05-09T05:56:28.110Z,798.75
2019-05-09T05:57:28.085Z,815.63
2019-05-09T05:59:20.740Z,838.13
2019-05-09T06:00:20.746Z,860.63
2019-05-09T06:02:13.690Z,877.50
2019-05-09T06:03:13.695Z,888.75
2019-05-09T06:05:08.509Z,905.63
2019-05-09T06:06:08.854Z,928.13
2019-05-09T06:08:00.044Z,973.13
2019-05-09T06:09:00.060Z,984.38
2019-05-09T06:10:52.984Z,1006.88
2019-05-09T06:11:52.996Z,1035.00
2019-05-09T06:13:56.195Z,1057.50
2019-05-09T06:14:48.003Z,1096.88
2019-05-09T06:16:38.852Z,1935.00
2019-05-09T06:17:38.866Z,1535.63
2019-05-09T06:19:31.793Z,1310.63
2019-05-09T06:20:31.806Z,956.25
2019-05-09T06:22:24.725Z,1867.50
2019-05-09T06:23:24.743Z,1895.63
2019-05-09T06:25:20.853Z,1957.50
2019-05-09T06:26:18.536Z,1732.50
2019-05-09T06:28:10.609Z,2002.50
2019-05-09T06:29:10.627Z,1524.38
2019-05-09T06:31:03.570Z,1693.13
2019-05-09T06:32:03.573Z,2070.00
2019-05-09T06:33:57.808Z,2340.00
2019-05-09T06:34:57.841Z,2373.75
2019-05-09T06:36:49.443Z,2340.00
2019-05-09T06:37:49.458Z,2385.00
2019-05-09T06:39:42.389Z,2351.25
2019-05-09T06:40:42.403Z,2356.88
2019-05-09T06:42:37.843Z,2373.75
2019-05-09T06:43:35.351Z,2328.75
2019-05-09T06:45:28.280Z,2131.88
2019-05-09T06:46:28.297Z,2193.75
2019-05-09T06:48:21.223Z,2340.00
2019-05-09T06:49:27.910Z,2311.88
2019-05-09T06:51:14.175Z,2131.88
2019-05-09T06:52:14.196Z,2261.25
2019-05-09T06:54:08.140Z,2328.75
2019-05-09T06:55:08.628Z,2266.88
2019-05-09T06:57:00.078Z,2148.75
2019-05-09T06:58:00.099Z,2351.25
2019-05-09T06:59:53.030Z,2385.00
2019-05-09T07:00:53.046Z,2334.38
2019-05-09T07:02:47.915Z,2503.13
2019-05-09T07:03:48.007Z,2435.63
2019-05-09T07:05:38.922Z,2261.25
2019-05-09T07:06:38.942Z,1884.38
2019-05-09T07:08:31.873Z,382.50
2019-05-09T07:09:31.890Z,286.88
2019-05-09T07:11:24.820Z,270.00
2019-05-09T07:12:27.270Z,270.00
2019-05-09T07:14:26.711Z,264.38
2019-05-09T07:15:17.855Z,258.75
2019-05-09T07:17:10.710Z,264.38
2019-05-09T07:18:10.724Z,258.75
2019-05-09T07:20:03.653Z,258.75
2019-05-09T07:21:03.663Z,253.13
2019-05-09T07:22:58.251Z,258.75
2019-05-09T07:23:58.292Z,286.88
2019-05-09T07:25:49.528Z,292.50
2019-05-09T07:26:49.538Z,337.50
2019-05-09T07:28:42.462Z,331.88
2019-05-09T07:29:42.475Z,281.25
2019-05-09T07:31:37.741Z,264.38
2019-05-09T07:32:38.114Z,348.75
2019-05-09T07:34:28.333Z,292.50
2019-05-09T07:35:28.346Z,309.38
2019-05-09T07:37:21.283Z,298.13
2019-05-09T07:38:21.289Z,286.88
2019-05-09T07:40:14.202Z,258.75
2019-05-09T07:41:14.216Z,270.00
2019-05-09T07:43:07.839Z,275.63
2019-05-09T07:44:07.696Z,315.00
2019-05-09T07:46:00.069Z,253.13
2019-05-09T07:47:00.080Z,241.88
2019-05-09T07:48:52.992Z,236.25
2019-05-09T07:49:53.008Z,236.25
2019-05-09T07:51:47.779Z,236.25
2019-05-09T07:52:47.666Z,230.63
2019-05-09T07:54:38.859Z,236.25
2019-05-09T07:55:38.905Z,230.63
2019-05-09T07:57:31.931Z,230.63
2019-05-09T07:58:31.811Z,230.63
2019-05-09T08:00:24.719Z,230.63
2019-05-09T08:01:24.732Z,236.25
2019-05-09T08:03:18.161Z,241.88
2019-05-09T08:04:18.304Z,241.88
2019-05-09T08:06:10.659Z,241.88
2019-05-09T08:07:10.587Z,236.25
2019-05-09T08:09:03.505Z,247.50
2019-05-09T08:10:03.524Z,258.75
2019-05-09T08:11:58.519Z,286.88
2019-05-09T08:12:58.478Z,331.88
2019-05-09T08:15:06.780Z,309.38
2019-05-09T08:15:49.394Z,286.88
2019-05-09T08:17:42.318Z,264.38
2019-05-09T08:18:42.324Z,258.75
2019-05-09T08:20:35.247Z,258.75
2019-05-09T08:21:35.253Z,275.63
2019-05-09T08:23:28.179Z,275.63
2019-05-09T08:24:28.183Z,275.63
2019-05-09T08:26:21.104Z,281.25
2019-05-09T08:27:21.112Z,286.88
2019-05-09T08:29:14.030Z,286.88
2019-05-09T08:30:14.045Z,281.25
2019-05-09T08:32:07.536Z,292.50
2019-05-09T08:33:08.212Z,309.38
2019-05-09T08:34:59.906Z,326.25
2019-05-09T08:35:59.911Z,331.88
2019-05-09T08:37:52.832Z,348.75
2019-05-09T08:38:52.844Z,326.25
2019-05-09T08:40:48.420Z,337.50
2019-05-09T08:41:48.323Z,315.00
2019-05-09T08:43:38.694Z,337.50
2019-05-09T08:44:41.993Z,393.75
2019-05-09T08:46:32.621Z,433.13
2019-05-09T08:47:32.635Z,405.00
2019-05-09T08:49:25.550Z,427.50
2019-05-09T08:50:27.952Z,410.63
2019-05-09T08:52:19.925Z,500.63
2019-05-09T08:53:18.950Z,489.38
2019-05-09T08:55:11.419Z,450.00
2019-05-09T08:56:13.126Z,421.88
2019-05-09T08:58:04.369Z,410.63
2019-05-09T08:59:04.368Z,382.50
2019-05-09T09:01:03.730Z,466.88
2019-05-09T09:02:12.461Z,545.63
2019-05-09T09:03:50.312Z,500.63
2019-05-09T09:04:50.246Z,450.00
2019-05-09T09:06:43.171Z,517.50
2019-05-09T09:07:43.178Z,540.00
2019-05-09T09:09:37.895Z,551.25
2019-05-09T09:10:38.498Z,630.00
2019-05-09T09:12:34.082Z,714.38
2019-05-09T09:13:29.049Z,708.75
2019-05-09T09:15:21.968Z,590.63
2019-05-09T09:16:22.655Z,534.38
2019-05-09T09:18:14.913Z,483.75
2019-05-09T09:19:14.922Z,511.88
2019-05-09T09:21:08.231Z,421.88
2019-05-09T09:22:08.835Z,388.13
2019-05-09T09:24:00.793Z,354.38
2019-05-09T09:25:00.804Z,354.38
2019-05-09T09:26:53.736Z,365.63
2019-05-09T09:27:53.744Z,348.75
2019-05-09T09:29:48.089Z,309.38
2019-05-09T09:30:48.434Z,331.88
2019-05-09T09:32:39.609Z,388.13
2019-05-09T09:33:39.617Z,365.63
2019-05-09T09:35:32.538Z,331.88
2019-05-09T09:36:32.556Z,354.38
2019-05-09T09:38:25.482Z,309.38
2019-05-09T09:39:27.534Z,331.88
2019-05-09T09:41:18.415Z,500.63
2019-05-09T09:42:19.881Z,450.00
2019-05-09T09:44:11.352Z,365.63
2019-05-09T09:45:11.363Z,337.50
2019-05-09T09:47:04.286Z,382.50
2019-05-09T09:48:04.297Z,405.00
2019-05-09T09:49:59.506Z,495.00
2019-05-09T09:50:58.017Z,540.00
2019-05-09T09:52:50.160Z,652.50
2019-05-09T09:53:50.182Z,545.63
2019-05-09T09:55:43.092Z,421.88
2019-05-09T09:56:43.108Z,450.00
2019-05-09T09:58:37.927Z,438.75
2019-05-09T09:59:38.513Z,410.63
2019-05-09T10:01:29.080Z,393.75
2019-05-09T10:02:28.982Z,416.25
2019-05-09T10:04:24.393Z,410.63
2019-05-09T10:05:21.914Z,421.88
2019-05-09T10:07:14.841Z,472.50
2019-05-09T10:08:14.857Z,438.75
2019-05-09T10:10:07.991Z,376.88
2019-05-09T10:11:08.250Z,343.13
2019-05-09T10:13:03.866Z,348.75
2019-05-09T10:14:00.753Z,348.75
2019-05-09T10:15:53.675Z,337.50
2019-05-09T10:16:53.693Z,337.50
2019-05-09T10:18:46.621Z,427.50
2019-05-09T10:19:48.223Z,444.38
2019-05-09T10:21:39.557Z,466.88
2019-05-09T10:22:45.863Z,444.38
2019-05-09T10:24:32.506Z,489.38
2019-05-09T10:25:32.520Z,540.00
2019-05-09T10:27:25.446Z,478.13
2019-05-09T10:28:25.502Z,483.75
2019-05-09T10:30:18.383Z,483.75
2019-05-09T10:31:18.401Z,511.88
2019-05-09T10:33:11.327Z,618.75
2019-05-09T10:34:11.341Z,534.38
2019-05-09T10:36:05.020Z,461.25
2019-05-09T10:37:04.281Z,461.25
2019-05-09T10:38:58.411Z,450.00
2019-05-09T10:39:58.087Z,416.25
2019-05-09T10:41:50.143Z,382.50
2019-05-09T10:42:50.167Z,360.00
2019-05-09T10:44:43.093Z,365.63
2019-05-09T10:45:43.103Z,393.75
2019-05-09T10:47:37.757Z,399.38
2019-05-09T10:48:38.497Z,421.88
2019-05-09T10:50:34.000Z,444.38
2019-05-09T10:51:28.986Z,466.88
2019-05-09T10:53:21.907Z,438.75
2019-05-09T10:54:21.920Z,461.25
2019-05-09T10:56:14.857Z,776.25
2019-05-09T10:57:14.869Z,675.00
2019-05-09T10:59:08.064Z,528.75
2019-05-09T11:00:08.757Z,506.25
2019-05-09T11:02:00.718Z,528.75
2019-05-09T11:03:00.734Z,540.00
2019-05-09T11:04:53.664Z,421.88
2019-05-09T11:05:53.673Z,376.88
2019-05-09T11:07:46.618Z,354.38
2019-05-09T11:08:47.628Z,343.13
2019-05-09T11:10:39.995Z,416.25
2019-05-09T11:11:39.656Z,472.50
2019-05-09T11:13:32.483Z,405.00
2019-05-09T11:14:37.243Z,343.13
2019-05-09T11:16:41.283Z,258.75
2019-05-09T11:17:25.438Z,253.13
2019-05-09T11:19:18.554Z,298.13
2019-05-09T11:20:19.331Z,264.38
2019-05-09T11:22:11.301Z,309.38
2019-05-09T11:23:11.316Z,343.13
2019-05-09T11:25:04.247Z,365.63
2019-05-09T11:26:04.256Z,320.63
2019-05-09T11:28:09.878Z,331.88
2019-05-09T11:28:58.733Z,433.13
2019-05-09T11:30:51.108Z,421.88
2019-05-09T11:31:51.130Z,371.25
2019-05-09T11:33:44.056Z,320.63
2019-05-09T11:34:44.067Z,298.13
2019-05-09T11:36:37.943Z,286.88
2019-05-09T11:37:38.357Z,281.25
2019-05-09T11:39:36.619Z,258.75
2019-05-09T11:40:29.953Z,253.13
2019-05-09T11:42:22.857Z,258.75
2019-05-09T11:43:22.876Z,281.25
2019-05-09T11:45:17.928Z,241.88
2019-05-09T11:46:18.052Z,253.13
2019-05-09T11:48:08.731Z,247.50
2019-05-09T11:49:08.776Z,258.75
2019-05-09T11:51:01.674Z,360.00
2019-05-09T11:52:01.689Z,455.63
2019-05-09T11:53:54.611Z,506.25
2019-05-09T11:54:54.623Z,540.00
2019-05-09T11:56:48.160Z,573.75
2019-05-09T11:57:48.527Z,562.50
2019-05-09T11:59:40.487Z,568.13
2019-05-09T12:00:40.505Z,601.88
2019-05-09T12:02:33.495Z,635.63
2019-05-09T12:03:33.511Z,652.50
2019-05-09T12:05:28.561Z,680.63
2019-05-09T12:06:29.001Z,686.25
2019-05-09T12:08:19.376Z,680.63
2019-05-09T12:09:19.394Z,686.25
2019-05-09T12:11:12.322Z,680.63
2019-05-09T12:12:12.339Z,691.88
2019-05-09T12:14:05.761Z,697.50
2019-05-09T12:15:05.769Z,703.13
2019-05-09T12:16:58.690Z,691.88
2019-05-09T12:18:05.366Z,680.63
2019-05-09T12:20:08.803Z,624.38
2019-05-09T12:20:51.654Z,601.88
2019-05-09T12:22:44.576Z,585.00
2019-05-09T12:23:44.595Z,573.75
2019-05-09T12:25:38.637Z,562.50
2019-05-09T12:26:39.136Z,523.13
2019-05-09T12:28:30.456Z,455.63
2019-05-09T12:29:30.475Z,461.25
2019-05-09T12:31:23.417Z,556.88
2019-05-09T12:32:23.434Z,585.00
2019-05-09T12:34:18.895Z,624.38
2019-05-09T12:35:18.996Z,613.13
2019-05-09T12:37:09.589Z,495.00
2019-05-09T12:38:09.314Z,450.00
2019-05-09T12:40:02.243Z,371.25
2019-05-09T12:41:02.258Z,354.38
2019-05-09T12:42:55.180Z,365.63
2019-05-09T12:43:57.311Z,371.25
2019-05-09T12:45:48.132Z,416.25
2019-05-09T12:46:48.988Z,461.25
2019-05-09T12:48:41.067Z,568.13
2019-05-09T12:49:41.087Z,624.38
2019-05-09T12:51:34.017Z,714.38
2019-05-09T12:52:34.060Z,703.13
2019-05-09T12:54:27.920Z,652.50
2019-05-09T12:55:27.611Z,630.00
2019-05-09T12:57:19.899Z,573.75
2019-05-09T12:58:19.918Z,556.88
2019-05-09T13:00:12.855Z,545.63
2019-05-09T13:01:12.863Z,556.88
2019-05-09T13:03:08.033Z,585.00
2019-05-09T13:04:09.495Z,596.25
2019-05-09T13:05:58.749Z,596.25
2019-05-09T13:06:58.994Z,568.13
2019-05-09T13:08:51.742Z,528.75
2019-05-09T13:09:52.669Z,506.25
2019-05-09T13:11:44.627Z,511.88
2019-05-09T13:12:44.641Z,517.50
2019-05-09T13:14:38.080Z,489.38
2019-05-09T13:15:38.419Z,500.63
2019-05-09T13:17:30.513Z,562.50
2019-05-09T13:18:30.534Z,585.00
2019-05-09T13:20:23.467Z,613.13
2019-05-09T13:21:23.478Z,601.88
2019-05-09T13:23:17.881Z,585.00
2019-05-09T13:24:19.488Z,568.13
2019-05-09T13:26:09.358Z,523.13
2019-05-09T13:27:09.384Z,495.00
2019-05-09T13:29:02.299Z,489.38
2019-05-09T13:30:02.525Z,500.63
2019-05-09T13:31:57.572Z,534.38
2019-05-09T13:32:55.261Z,551.25
2019-05-09T13:34:48.810Z,517.50
2019-05-09T13:35:48.720Z,461.25
2019-05-09T13:37:41.159Z,337.50
2019-05-09T13:38:56.012Z,303.75
2019-05-09T13:40:34.112Z,264.38
2019-05-09T13:41:34.118Z,253.13
2019-05-09T13:43:28.097Z,241.88
2019-05-09T13:44:27.780Z,230.63
2019-05-09T13:46:19.998Z,236.25
2019-05-09T13:47:20.006Z,247.50
2019-05-09T13:49:15.630Z,303.75
2019-05-09T13:50:12.944Z,326.25
2019-05-09T13:52:05.966Z,416.25
2019-05-09T13:53:07.603Z,461.25
2019-05-09T13:54:58.814Z,523.13
2019-05-09T13:55:58.826Z,517.50
2019-05-09T13:57:51.748Z,495.00
2019-05-09T13:58:51.768Z,511.88
2019-05-09T14:00:56.779Z,523.13
2019-05-09T14:01:44.707Z,511.88
2019-05-09T14:03:38.767Z,511.88
2019-05-09T14:04:39.562Z,517.50
2019-05-09T14:06:30.578Z,540.00
2019-05-09T14:07:30.595Z,540.00
2019-05-09T14:09:23.514Z,517.50
2019-05-09T14:10:23.529Z,500.63
2019-05-09T14:12:17.590Z,444.38
2019-05-09T14:13:18.926Z,421.88
2019-05-09T14:15:09.411Z,410.63
2019-05-09T14:16:20.149Z,410.63
2019-05-09T14:18:02.338Z,405.00
2019-05-09T14:19:24.450Z,405.00
2019-05-09T14:20:57.264Z,365.63
2019-05-09T14:21:58.288Z,331.88
2019-05-09T14:24:03.471Z,309.38
2019-05-09T14:24:48.491Z,309.38
2019-05-09T14:26:41.165Z,292.50
2019-05-09T14:27:41.175Z,281.25
2019-05-09T14:29:34.098Z,258.75
2019-05-09T14:30:34.117Z,258.75
2019-05-09T14:32:27.043Z,264.38
2019-05-09T14:33:29.495Z,264.38
2019-05-09T14:35:19.978Z,270.00
2019-05-09T14:36:19.997Z,275.63
2019-05-09T14:38:12.933Z,309.38
2019-05-09T14:39:12.948Z,348.75
2019-05-09T14:41:07.803Z,360.00
2019-05-09T14:42:09.064Z,365.63
2019-05-09T14:43:59.861Z,371.25
2019-05-09T14:44:58.828Z,360.00
2019-05-09T14:46:51.754Z,331.88
2019-05-09T14:47:51.771Z,331.88
2019-05-09T14:49:44.895Z,326.25
2019-05-09T14:50:44.718Z,337.50
2019-05-09T14:52:38.421Z,348.75
2019-05-09T14:53:39.006Z,348.75
2019-05-09T14:55:30.585Z,337.50
2019-05-09T14:56:30.598Z,331.88
2019-05-09T14:58:23.528Z,326.25
2019-05-09T14:59:23.541Z,315.00
2019-05-09T15:01:19.444Z,315.00
2019-05-09T15:02:17.939Z,326.25
2019-05-09T15:04:09.410Z,360.00
2019-05-09T15:05:09.802Z,376.88
2019-05-09T15:07:03.120Z,416.25
2019-05-09T15:08:02.367Z,444.38
2019-05-09T15:09:56.850Z,478.13
2019-05-09T15:10:58.031Z,478.13
2019-05-09T15:12:48.749Z,495.00
2019-05-09T15:13:48.256Z,500.63
2019-05-09T15:15:41.176Z,500.63
2019-05-09T15:16:41.198Z,500.63
2019-05-09T15:18:34.127Z,500.63
2019-05-09T15:19:34.138Z,483.75
2019-05-09T15:21:27.076Z,455.63
2019-05-09T15:22:28.520Z,450.00
2019-05-09T15:24:20.053Z,421.88
2019-05-09T15:25:20.932Z,376.88
2019-05-09T15:27:12.957Z,326.25
2019-05-09T15:28:12.969Z,303.75
2019-05-09T15:30:05.928Z,298.13
2019-05-09T15:31:08.693Z,292.50
2019-05-09T15:32:58.851Z,298.13
2019-05-09T15:33:58.862Z,309.38
2019-05-09T15:35:51.803Z,315.00
2019-05-09T15:36:51.832Z,320.63
2019-05-09T15:38:44.756Z,337.50
2019-05-09T15:39:44.779Z,343.13
2019-05-09T15:41:38.483Z,343.13
2019-05-09T15:42:39.022Z,331.88
2019-05-09T15:44:30.625Z,303.75
2019-05-09T15:45:30.644Z,303.75
2019-05-09T15:47:23.575Z,326.25
2019-05-09T15:48:23.587Z,337.50
2019-05-09T15:50:22.533Z,354.38
2019-05-09T15:51:18.008Z,365.63
2019-05-09T15:53:09.458Z,371.25
2019-05-09T15:54:09.468Z,371.25
2019-05-09T15:56:02.443Z,376.88
2019-05-09T15:57:02.408Z,376.88
2019-05-09T15:58:57.856Z,371.25
2019-05-09T15:59:55.351Z,371.25
2019-05-09T16:01:49.127Z,365.63
2019-05-09T16:02:48.729Z,354.38
2019-05-09T16:04:41.322Z,337.50
2019-05-09T16:05:41.340Z,331.88
2019-05-09T16:07:37.383Z,326.25
2019-05-09T16:08:37.892Z,320.63
2019-05-09T16:10:28.404Z,315.00
2019-05-09T16:11:28.629Z,315.00
2019-05-09T16:13:21.236Z,292.50
2019-05-09T16:14:21.183Z,292.50
2019-05-09T16:16:14.082Z,281.25
2019-05-09T16:17:14.099Z,270.00
2019-05-09T16:19:08.931Z,253.13
2019-05-09T16:20:08.429Z,241.88
2019-05-09T16:22:01.919Z,236.25
2019-05-09T16:22:59.987Z,230.63
2019-05-09T16:24:52.902Z,219.38
2019-05-09T16:25:52.920Z,219.38
2019-05-09T16:27:48.272Z,202.50
2019-05-09T16:28:48.587Z,202.50
2019-05-09T16:30:38.779Z,191.25
2019-05-09T16:31:39.075Z,185.63
2019-05-09T16:33:31.723Z,174.38
2019-05-09T16:34:31.735Z,174.38
2019-05-09T16:36:24.683Z,180.00
2019-05-09T16:37:24.675Z,180.00
2019-05-09T16:39:18.028Z,180.00
2019-05-09T16:40:17.904Z,180.00
2019-05-09T16:42:10.539Z,180.00
2019-05-09T16:43:10.548Z,180.00
2019-05-09T16:45:03.515Z,180.00
2019-05-09T16:46:03.486Z,185.63
2019-05-09T16:47:57.532Z,180.00
2019-05-09T16:48:58.098Z,180.00
2019-05-09T16:51:00.408Z,168.75
2019-05-09T16:51:49.365Z,163.13
2019-05-09T16:53:42.296Z,157.50
2019-05-09T16:54:42.304Z,157.50
2019-05-09T16:56:37.918Z,157.50
2019-05-09T16:57:37.565Z,157.50
2019-05-09T16:59:28.278Z,174.38
2019-05-09T17:00:28.178Z,180.00
2019-05-09T17:02:24.673Z,196.88
2019-05-09T17:03:21.121Z,202.50
2019-05-09T17:05:14.036Z,208.13
2019-05-09T17:06:14.060Z,208.13
2019-05-09T17:08:08.197Z,208.13
2019-05-09T17:09:08.427Z,202.50
2019-05-09T17:10:59.911Z,202.50
2019-05-09T17:11:59.928Z,196.88
2019-05-09T17:13:52.852Z,196.88
2019-05-09T17:14:52.875Z,191.25
2019-05-09T17:16:48.100Z,191.25
2019-05-09T17:17:47.658Z,191.25
2019-05-09T17:19:38.785Z,191.25
2019-05-09T17:20:38.799Z,191.25
2019-05-09T17:22:31.719Z,185.63
2019-05-09T17:23:31.789Z,191.25
2019-05-09T17:25:24.663Z,185.63
2019-05-09T17:26:24.678Z,185.63
2019-05-09T17:28:18.592Z,185.63
2019-05-09T17:29:18.709Z,180.00
2019-05-09T17:31:11.524Z,174.38
2019-05-09T17:32:11.546Z,163.13
2019-05-09T17:34:04.961Z,163.13
2019-05-09T17:35:04.976Z,163.13
2019-05-09T17:36:57.896Z,168.75
2019-05-09T17:37:57.925Z,168.75
2019-05-09T17:39:50.843Z,168.75
2019-05-09T17:40:50.855Z,168.75
2019-05-09T17:42:43.902Z,157.50
2019-05-09T17:43:43.794Z,151.88
2019-05-09T17:45:39.559Z,140.63
2019-05-09T17:46:38.557Z,140.63
2019-05-09T17:48:29.654Z,129.38
2019-05-09T17:49:29.665Z,129.38
2019-05-09T17:51:33.043Z,118.13
2019-05-09T17:52:22.606Z,118.13
2019-05-09T17:54:15.528Z,112.50
2019-05-09T17:55:17.999Z,112.50
2019-05-09T17:57:08.455Z,112.50
2019-05-09T17:58:08.996Z,106.88
2019-05-09T18:00:01.452Z,95.63
2019-05-09T18:01:01.409Z,78.75
2019-05-09T18:02:54.328Z,84.38
2019-05-09T18:03:54.345Z,78.75
2019-05-09T18:05:48.627Z,73.13
2019-05-09T18:06:48.937Z,73.13
2019-05-09T18:08:40.205Z,73.13
2019-05-09T18:09:40.215Z,73.13
2019-05-09T18:11:33.143Z,73.13
2019-05-09T18:12:33.147Z,73.13
2019-05-09T18:14:27.635Z,67.50